Aktuální počasí v Česku a ve světě - METAR

Seznam meteostanic umístěných nejčasteji na letišti v ČR a ve světě

Vyhledat místa podle abecedy:
A B C D E F G H I J K L M N O P Q R S T U V W X Y Z

Filtrovat:

ID stanice:
a/nebo
Název místa (fulltext):
 
Místo (ID)Naposledy načteno 
Rarotonga I (NCRG) 01.12.2020 02:00 UTC Zobrazit METAR
NCRG 010200Z AUTO 05009KT 9999 FEW019/// 28/24 Q1014
Reykjavik (BIRK) 01.12.2020 04:00 UTC Zobrazit METAR
BIRK 010400Z 17017KT 6000 -RA SCT008 BKN020 OVC026 07/06 Q0989
Riga (EVRA) 01.12.2020 03:50 UTC Zobrazit METAR
EVRA 010350Z 19007KT 9999 OVC005 02/01 Q1020 R18/290195 NOSIG
Rimini (LIPR) 01.12.2020 00:50 UTC Zobrazit METAR
LIPR 010050Z AUTO 23004KT 9999 BKN037/// 03/01 Q1021
Riyadh (OERY) 01.12.2020 04:00 UTC Zobrazit METAR
OERY 010400Z 12009KT 5000 RA BKN080 16/16 Q1020 NOSIG
Road Town (TUPJ) 01.12.2020 04:00 UTC Zobrazit METAR
TUPJ 010400Z 08006KT 10SM FEW024 25/21 A2999 RMK Q1015 VIS16KM
Rodos (LGRP) 01.12.2020 03:50 UTC Zobrazit METAR
LGRP 010350Z VRB02KT 9999 SCT020 15/13 Q1013 NOSIG
Rome (LIRF) 01.12.2020 03:50 UTC Zobrazit METAR
LIRF 010350Z 07003KT CAVOK 05/04 Q1017 NOSIG
Roseau (TDCF) 30.11.2020 21:00 UTC Zobrazit METAR
TDCF 302100Z 13006KT 9999 FEW019 28/22 Q1011
Rotterdam (EHRD) 01.12.2020 01:55 UTC Zobrazit METAR
EHRD 010155Z AUTO 31011KT 260V360 9999 FEW019 SCT027 BKN034 08/06 Q1013 TEMPO 6000
Rzeszow (EPRZ) 01.12.2020 04:00 UTC Zobrazit METAR
EPRZ 010400Z 15005KT CAVOK M03/M05 Q1023
Reklama


Další české internetové stránky (nejen) o počasí najdete v katalogu TOPlist - weby o počasí nebo vyhledejte na internetu, co jste tu na 🌞 Slunečnu ⛅ zatím nenašli:
⭐ Přidat Slunečno.cz do oblíbených | 🏠 Nastavit Slunečno.cz jako HOMEPAGE

⬆️ Posunout stránku nahoru ⬆️
Reklama